Jacksonville, Georgia
Current Conditions -  °F | °C
As of 1:15 PM on Monday 26 Jan 2015 (Local Time) from KFZG Reporting Station
Overcast Overcast  
Wind Chill: 51°   Ceiling: 2900
Heat Index: 51°   Visibility: 10mi
Dew Point: 36°   Wind: 16mph
Humidity: 57%   Direction: 290°WNW
Pressure: 29.86"   Gusts: 26mph
Location:  31.81°N, 82.98°W
Report Text: KFZG 261815Z AUTO 29014G23KT 10SM OVC029 11/02 A2986 RMK AO2 T01050023
Loading
Personal Weather Stations






























Interactive Weather Map New forecast layout! Learn more

10-Day Weather Forecast

Advertisements
Track Severe Weather on mobile